Latest Weather Observations for Rottnest Island

IDW60801

Issued at 5:54 am WST Friday 22 January 2021 (issued every 10 minutes, with the page automatically refreshed every 10 minutes)

About weather observations | Map of weather stations | Latest weather observations for WA | Other Formats
Station Details ID: 009193 Name: ROTTNEST ISLAND Lat: -32.01 Lon: 115.50 Height: 43.1 m
Data from the previous 72 hours. | See also: Recent months at Rottnest Island
Date/Time
WST
Temp
°C
App
Temp
°C
Dew
Point
°C
Rel
Hum
%
Delta-T
°C
Wind Press
QNH
hPa
Press
MSL
hPa
Rain since
9am
mm
Dir  Spd
km/h
Gust
km/h
Spd
kts
Gust
kts
22/05:30am 21.5 19.0 14.2 63 4.3 ESE 20 28 11 15 1006.4 1006.3 0.0
22/05:00am 21.7 19.1 13.9 61 4.5 ESE 20 28 11 15 1006.2 1006.1 0.0
22/04:30am 22.2 18.8 13.8 59 4.9 E 24 32 13 17 1006.2 1006.1 0.0
22/04:00am 22.4 19.0 13.7 58 5.1 E 24 35 13 19 1006.2 1006.1 0.0
22/03:30am 22.8 19.9 14.1 58 5.1 ESE 22 32 12 17 1006.3 1006.2 0.0
22/03:00am 23.3 20.2 14.6 58 5.2 ESE 24 33 13 18 1006.5 1006.4 0.0
22/02:30am 23.5 21.9 16.1 63 4.5 ESE 19 24 10 13 1006.7 1006.6 0.0
22/02:00am 24.1 22.3 16.1 61 4.9 ESE 20 28 11 15 1007.0 1006.9 0.0
22/01:30am 24.1 23.0 17.4 66 4.2 ESE 19 26 10 14 1007.2 1007.1 0.0
22/01:00am 24.7 23.6 17.2 63 4.7 ESE 19 26 10 14 1007.1 1007.0 0.0
22/12:30am 24.1 23.7 19.0 73 3.3 SE 19 26 10 14 1007.1 1007.0 0.0
22/12:00am 23.6 24.4 21.3 87 1.5 SE 19 24 10 13 1007.3 1007.2 0.0
 
Date/Time
WST
Temp
°C
App
Temp
°C
Dew
Point
°C
Rel
Hum
%
Delta-T
°C
Wind Press
QNH
hPa
Press
MSL
hPa
Rain since
9am
mm
Dir  Spd
km/h
Gust
km/h
Spd
kts
Gust
kts
21/11:30pm 23.5 24.9 23.5 100 0.0 SSE 22 26 12 14 1007.5 1007.4 0.0
21/11:00pm 23.1 23.8 22.9 99 0.1 SSE 24 32 13 17 1007.6 1007.5 0.0
21/10:30pm 23.0 21.8 22.3 96 0.5 S 32 37 17 20 1007.4 1007.3 0.0
21/10:00pm 22.9 21.4 21.7 93 0.8 S 32 39 17 21 1007.6 1007.5 0.0
21/09:30pm 23.0 21.2 21.5 91 1.0 S 33 41 18 22 1008.0 1007.8 0.0
21/09:00pm 23.1 20.9 21.4 90 1.1 SSW 35 44 19 24 1008.0 1007.8 0.0
21/08:30pm 23.1 20.9 21.4 90 1.1 SSW 35 44 19 24 1007.8 1007.7 0.0
21/08:00pm 23.2 21.0 21.5 90 1.1 SSW 35 43 19 23 1008.0 1007.8 0.0
21/07:30pm 23.2 21.0 21.5 90 1.1 SSW 35 43 19 23 1007.8 1007.7 0.0
21/07:00pm 23.6 21.8 21.1 86 1.6 SSW 32 41 17 22 1007.8 1007.7 0.0
21/06:30pm 23.4 21.0 21.1 87 1.5 SSW 35 46 19 25 1007.8 1007.7 0.0
21/06:00pm 23.6 21.3 21.3 87 1.5 SW 35 44 19 24 1008.1 1007.9 0.0
21/05:30pm 24.0 21.1 20.9 83 2.0 SW 37 48 20 26 1007.8 1007.7 0.0
21/05:00pm 24.2 21.4 20.3 79 2.5 SW 35 43 19 23 1007.8 1007.7 0.0
21/04:30pm 25.0 21.7 20.0 74 3.2 SSW 37 46 20 25 1007.8 1007.7 0.0
21/04:00pm 25.5 21.9 20.1 72 3.5 SSW 39 48 21 26 1008.2 1008.0 0.0
21/03:30pm 25.3 21.2 19.2 69 3.9 SSW 39 48 21 26 1008.4 1008.2 0.0
21/03:00pm 25.3 21.6 19.9 72 3.5 SSW 39 46 21 25 1008.7 1008.5 0.0
21/02:30pm 25.1 21.6 19.7 72 3.5 SSW 37 46 20 25 1009.1 1008.9 0.0
21/02:00pm 25.4 22.4 19.8 71 3.6 SSW 35 43 19 23 1009.4 1009.2 0.0
21/01:30pm 25.9 22.7 19.5 68 4.1 SSW 35 44 19 24 1009.6 1009.4 0.0
21/01:00pm 25.7 23.1 19.6 69 3.9 SSW 32 41 17 22 1010.0 1009.8 0.0
21/12:30pm 24.5 21.4 18.9 71 3.6 SSW 33 41 18 22 1010.3 1010.1 0.0
21/12:00pm 25.6 22.5 19.7 70 3.8 SSW 35 41 19 22 1010.6 1010.4 0.0
21/11:30am 24.6 21.4 18.5 69 3.9 SSW 33 43 18 23 1010.9 1010.7 0.0
21/11:00am 24.7 21.3 18.9 70 3.7 SSW 35 43 19 23 1011.2 1011.0 0.0
21/10:30am 24.6 21.7 18.8 70 3.7 S 32 39 17 21 1011.6 1011.4 0.0
21/10:00am 24.1 21.8 18.5 71 3.5 S 28 35 15 19 1011.7 1011.5 0.0
21/09:30am 24.3 22.8 18.5 70 3.7 S 24 30 13 16 1011.7 1011.5 0.0
21/09:00am 23.7 21.9 17.9 70 3.6 SSE 24 28 13 15 1011.8 1011.6 0.0
21/08:30am 23.4 20.8 17.8 71 3.5 SSE 28 32 15 17 1011.9 1011.7 0.0
21/08:00am 23.8 21.0 18.2 71 3.5 SSE 30 35 16 19 1012.1 1011.9 0.0
21/07:30am 23.4 20.6 18.3 73 3.2 SSE 30 37 16 20 1012.2 1012.0 0.0
21/07:00am 23.0 20.3 18.5 76 2.8 SSE 30 37 16 20 1011.8 1011.6 0.0
21/06:30am 22.6 20.1 18.8 79 2.4 SSE 30 35 16 19 1011.6 1011.4 0.0
21/06:00am 22.5 20.7 19.5 83 1.9 SSE 28 33 15 18 1011.3 1011.1 0.0
21/05:30am 22.2 21.5 21.0 93 0.8 SSE 26 32 14 17 1011.1 1010.9 0.0
21/05:00am 22.2 20.8 21.2 94 0.7 SSE 30 35 16 19 1010.9 1010.7 0.0
21/04:30am 22.2 21.3 21.4 95 0.5 SSE 28 35 15 19 1010.7 1010.5 0.0
21/04:00am 22.2 20.5 21.4 95 0.5 S 32 39 17 21 1010.4 1010.2 0.0
21/03:30am 22.4 20.3 21.6 95 0.5 S 35 43 19 23 1010.3 1010.1 0.0
21/03:00am 22.5 21.4 22.5 100 0.0 S 32 39 17 21 1010.3 1010.1 0.0
21/02:30am 22.5 21.2 22.5 100 0.0 S 33 41 18 22 1010.4 1010.2 0.0
21/02:00am 22.7 22.1 22.7 100 0.0 S 30 37 16 20 1010.5 1010.3 0.0
21/01:30am 22.8 21.9 22.8 100 0.0 S 32 39 17 21 1010.3 1010.1 0.0
21/01:00am 22.8 21.5 22.5 98 0.2 S 33 39 18 21 1010.3 1010.1 0.0
21/12:30am 22.8 21.4 22.3 97 0.3 S 33 41 18 22 1010.4 1010.2 0.0
21/12:00am 22.7 20.1 22.2 97 0.3 S 39 50 21 27 1010.3 1010.1 0.0
 
Date/Time
WST
Temp
°C
App
Temp
°C
Dew
Point
°C
Rel
Hum
%
Delta-T
°C
Wind Press
QNH
hPa
Press
MSL
hPa
Rain since
9am
mm
Dir  Spd
km/h
Gust
km/h
Spd
kts
Gust
kts
20/11:30pm 22.7 20.2 22.4 98 0.2 S 39 48 21 26 1010.3 1010.1 0.0
20/11:00pm 23.0 21.9 22.5 97 0.3 SSW 32 41 17 22 1010.5 1010.3 0.0
20/10:30pm 23.2 21.4 22.2 94 0.7 S 35 41 19 22 1010.3 1010.1 0.0
20/10:00pm 23.1 20.6 21.7 92 0.9 SSW 37 44 20 24 1010.2 1010.0 0.0
20/09:30pm 23.1 20.5 21.5 91 1.1 SSW 37 46 20 25 1010.3 1010.1 0.0
20/09:00pm 23.0 20.0 21.3 90 1.1 SSW 39 52 21 28 1010.2 1010.0 0.0
20/08:30pm 23.0 20.3 21.3 90 1.1 SSW 37 44 20 24 1010.1 1009.9 0.0
20/08:00pm 23.1 20.9 21.4 90 1.1 SSW 35 43 19 23 1010.1 1009.9 0.0
20/07:30pm 23.2 20.5 21.3 89 1.2 SSW 37 44 20 24 1009.8 1009.6 0.0
20/07:00pm 23.4 20.6 21.1 87 1.5 SSW 37 44 20 24 1009.6 1009.4 0.0
20/06:30pm 23.6 20.4 21.1 86 1.6 SSW 39 46 21 25 1009.5 1009.3 0.0
20/06:00pm 23.9 21.6 21.2 85 1.8 SSW 35 44 19 24 1009.4 1009.2 0.0
20/05:30pm 24.0 22.2 21.1 84 1.9 SSW 32 46 17 25 1009.1 1008.9 0.0
20/05:00pm 24.4 22.7 21.3 83 2.0 SW 32 41 17 22 1009.3 1009.1 0.0
20/04:30pm 24.8 23.0 21.5 82 2.2 SW 33 43 18 23 1009.4 1009.2 0.0
20/04:00pm 25.1 23.8 21.4 80 2.5 SSW 30 37 16 20 1009.5 1009.3 0.0
20/03:30pm 25.1 23.6 21.0 78 2.7 SSW 30 37 16 20 1009.5 1009.3 0.0
20/03:00pm 25.8 23.7 20.6 73 3.4 SSW 32 39 17 21 1009.6 1009.4 0.0
20/02:30pm 25.4 23.5 20.9 76 3.0 SW 32 35 17 19 1010.0 1009.8 0.0
20/02:00pm 24.6 23.0 20.7 79 2.6 SW 30 33 16 18 1010.2 1010.0 0.0
20/01:30pm 24.8 23.2 20.7 78 2.7 SW 30 35 16 19 1010.5 1010.3 0.0
20/01:00pm 25.2 25.2 20.9 77 2.8 WSW 22 30 12 16 1010.7 1010.5 0.0
20/12:30pm 25.1 24.9 19.7 72 3.5 WSW 20 26 11 14 1010.7 1010.5 0.0
20/12:00pm 26.2 26.4 20.1 69 4.0 WSW 19 24 10 13 1010.9 1010.7 0.0
20/11:30am 25.5 25.8 20.3 73 3.4 WSW 19 28 10 15 1011.1 1010.9 0.0
20/11:00am 24.0 25.0 21.1 84 1.9 WNW 17 24 9 13 1011.3 1011.1 0.0
20/10:30am 25.1 27.0 20.6 76 2.9 WSW 11 17 6 9 1011.3 1011.1 0.0
20/10:00am 23.6 25.0 20.3 82 2.1 SW 13 20 7 11 1011.3 1011.1 0.0
20/09:30am 23.9 24.9 21.0 84 1.9 SW 17 22 9 12 1011.3 1011.1 0.0
20/09:00am 24.3 24.9 21.0 82 2.2 SSW 19 22 10 12 1011.2 1011.0 0.0
20/08:30am 24.5 25.7 22.2 87 1.5 SW 19 26 10 14 1011.1 1010.9 0.0
20/08:00am 23.0 24.3 22.3 96 0.5 SSW 19 22 10 12 1011.2 1011.0 0.0
20/07:30am 22.5 23.3 22.5 100 0.0 SSW 22 28 12 15 1011.0 1010.8 0.0
20/07:00am 22.3 23.0 22.3 100 0.0 SW 22 32 12 17 1010.7 1010.5 0.0
20/06:30am 22.0 21.8 22.0 100 0.0 SW 26 32 14 17 1010.5 1010.3 0.0
20/06:00am 21.6 22.3 21.6 100 0.0 SW 20 24 11 13 1009.9 1009.7 0.0
20/05:30am 21.4 22.6 21.4 100 0.0 SW 17 19 9 10 1009.8 1009.6 0.0
20/05:00am 21.9 23.7 21.9 100 0.0 WSW 15 19 8 10 1009.7 1009.5 0.0
20/04:30am 21.7 23.8 21.7 100 0.0 W 13 19 7 10 1009.5 1009.3 0.0
20/04:00am 21.6 26.1 21.6 100 0.0 CALM 0 7 0 4 1009.3 1009.1 0.0
20/03:30am 21.5 24.6 21.5 100 0.0 W 7 11 4 6 1009.1 1008.9 0.0
20/03:00am 21.4 23.3 21.4 100 0.0 W 13 19 7 10 1008.8 1008.6 0.0
20/02:30am 21.2 23.0 21.2 100 0.0 SSW 13 15 7 8 1008.7 1008.5 0.0
20/02:00am 21.4 24.5 21.4 100 0.0 S 7 9 4 5 1008.9 1008.7 0.0
20/01:30am 21.7 24.6 21.7 100 0.0 S 9 13 5 7 1009.0 1008.8 0.0
20/01:00am 21.7 24.2 21.7 100 0.0 SSW 11 15 6 8 1009.0 1008.8 0.0
20/12:30am 22.0 22.2 22.0 100 0.0 SW 24 28 13 15 1009.3 1009.1 0.0
20/12:00am 22.2 23.2 22.2 100 0.0 SW 20 26 11 14 1009.4 1009.2 0.0
 
Date/Time
WST
Temp
°C
App
Temp
°C
Dew
Point
°C
Rel
Hum
%
Delta-T
°C
Wind Press
QNH
hPa
Press
MSL
hPa
Rain since
9am
mm
Dir  Spd
km/h
Gust
km/h
Spd
kts
Gust
kts
19/11:30pm 22.4 24.9 22.4 100 0.0 SW 13 15 7 8 1009.8 1009.6 0.0
19/11:00pm 22.4 25.3 22.4 100 0.0 SW 11 11 6 6 1010.0 1009.8 0.0
19/10:30pm 22.4 25.6 22.4 100 0.0 SW 9 11 5 6 1010.2 1010.0 0.0
19/10:00pm 22.6 25.6 22.6 100 0.0 SW 11 13 6 7 1010.4 1010.2 0.0
19/09:30pm 22.5 24.3 22.5 100 0.0 SW 17 20 9 11 1010.1 1009.9 0.0
19/09:00pm 22.6 24.4 22.6 100 0.0 SW 17 20 9 11 1010.0 1009.8 0.0
19/08:30pm 22.8 25.1 22.8 100 0.0 SSW 15 19 8 10 1009.4 1009.2 0.0
19/08:00pm 22.8 25.1 22.8 100 0.0 SW 15 19 8 10 1009.1 1008.9 0.0
19/07:30pm 22.9 24.9 22.9 100 0.0 SW 17 20 9 11 1009.3 1009.1 0.0
19/07:00pm 23.2 25.2 22.9 98 0.2 SSW 17 22 9 12 1009.0 1008.8 0.0
19/06:30pm 23.4 24.9 23.1 98 0.2 SW 20 24 11 13 1008.9 1008.7 0.0
19/06:00pm 24.4 25.7 23.4 94 0.7 SW 22 28 12 15 1008.6 1008.4 0.0
19/05:30pm 25.1 26.9 23.5 91 1.1 SW 20 28 11 15 1008.4 1008.2 0.0
19/05:00pm 24.4 25.9 23.0 92 0.9 SW 20 26 11 14 1008.3 1008.1 0.0
19/04:30pm 24.6 25.4 23.2 92 0.9 WSW 24 30 13 16 1008.2 1008.0 0.0
19/04:00pm 25.5 25.7 22.8 85 1.8 WSW 26 30 14 16 1008.1 1007.9 0.0
19/03:30pm 25.8 25.4 22.3 81 2.4 WSW 28 33 15 18 1008.3 1008.1 0.0
19/03:00pm 26.4 25.4 21.2 73 3.5 WSW 28 32 15 17 1008.6 1008.4 0.0
19/02:30pm 29.6 29.1 19.0 53 6.9 W 20 28 11 15 1008.7 1008.5 0.0
19/02:00pm 27.3 24.9 14.3 45 7.8 W 20 26 11 14 1008.9 1008.7 0.0
19/01:30pm 30.1 27.1 12.5 34 10.4 WNW 20 24 11 13 1009.0 1008.8 0.0
19/01:00pm 30.4 26.9 10.9 30 11.2 NW 20 26 11 14 1009.2 1009.0 0.0
19/12:30pm 30.2 27.8 12.6 34 10.4 NW 17 20 9 11 1009.4 1009.2 0.0
19/12:00pm 29.5 27.6 12.9 36 9.8 NNW 15 20 8 11 1009.6 1009.4 0.0
19/11:30am 28.1 27.4 15.4 46 7.8 NW 13 17 7 9 1009.9 1009.7 0.0
19/11:00am 27.5 26.6 15.8 48 7.2 NW 15 17 8 9 1010.2 1010.0 0.0
19/10:30am 30.0 30.8 16.4 44 8.5 S 7 11 4 6 1010.2 1010.0 0.0
19/10:00am 28.5 29.5 17.7 52 6.9 S 9 13 5 7 1010.4 1010.2 0.0
19/09:30am 27.3 27.8 16.6 52 6.6 SSE 9 15 5 8 1010.7 1010.5 0.0
19/09:00am 27.8 27.6 14.8 45 7.9 NNE 9 13 5 7 1010.7 1010.5 0.0
19/08:30am 25.7 25.0 15.4 53 6.2 NNW 13 19 7 10 1010.9 1010.7 0.0
19/08:00am 25.3 24.2 16.4 57 5.5 NW 17 20 9 11 1010.9 1010.7 0.0
19/07:30am 24.8 24.6 16.8 61 4.9 NNW 13 20 7 11 1011.0 1010.8 0.0
19/07:00am 24.3 23.8 16.8 63 4.6 NNW 15 19 8 10 1010.8 1010.6 0.0
19/06:30am 23.2 23.0 17.7 71 3.4 NW 15 17 8 9 1010.7 1010.5 0.0
19/06:00am 23.3 22.9 18.0 72 3.3 NW 17 19 9 10 1010.5 1010.3 0.0

Other formats

Comma delimited format used in spreadsheet applications
http://www.bom.gov.au/fwo/IDW60801/IDW60801.94602.axf

JavaScript Object Notation format (JSON) in row-major order
http://www.bom.gov.au/fwo/IDW60801/IDW60801.94602.json

Data quality

Most of these data are generated automatically and are frequently updated. Quality checks on data are not normally performed. It is possible for incorrect values to appear. Refer to information at About Latest Weather Observations and please check the disclaimer before using these data.